sensor_id;sensor_type;location;lat;lon;timestamp;P1;durP1;ratioP1;P2;durP2;ratioP2
10987;SDS011;5547;42.672;23.230;2024-03-08T00:02:44;4.20;;;3.10;;
10987;SDS011;5547;42.672;23.230;2024-03-08T00:05:45;4.40;;;3.30;;
10987;SDS011;5547;42.672;23.230;2024-03-08T00:08:45;4.00;;;3.30;;
10987;SDS011;5547;42.672;23.230;2024-03-08T00:11:45;3.87;;;3.23;;
10987;SDS011;5547;42.672;23.230;2024-03-08T00:14:46;4.75;;;3.60;;
10987;SDS011;5547;42.672;23.230;2024-03-08T00:17:46;4.43;;;3.23;;
10987;SDS011;5547;42.672;23.230;2024-03-08T00:20:47;4.70;;;3.80;;
10987;SDS011;5547;42.672;23.230;2024-03-08T00:23:47;3.60;;;2.93;;
10987;SDS011;5547;42.672;23.230;2024-03-08T00:26:47;4.50;;;3.73;;
10987;SDS011;5547;42.672;23.230;2024-03-08T00:29:47;5.37;;;3.90;;
10987;SDS011;5547;42.672;23.230;2024-03-08T00:32:48;5.23;;;3.67;;
10987;SDS011;5547;42.672;23.230;2024-03-08T00:35:48;4.22;;;3.35;;
10987;SDS011;5547;42.672;23.230;2024-03-08T00:38:49;4.97;;;3.77;;
10987;SDS011;5547;42.672;23.230;2024-03-08T00:41:49;6.00;;;4.33;;
10987;SDS011;5547;42.672;23.230;2024-03-08T00:44:49;5.30;;;4.20;;
10987;SDS011;5547;42.672;23.230;2024-03-08T00:47:51;5.22;;;4.22;;
10987;SDS011;5547;42.672;23.230;2024-03-08T00:50:51;5.63;;;3.90;;
10987;SDS011;5547;42.672;23.230;2024-03-08T00:53:51;4.57;;;3.63;;
10987;SDS011;5547;42.672;23.230;2024-03-08T00:56:52;4.17;;;3.50;;
10987;SDS011;5547;42.672;23.230;2024-03-08T00:59:52;4.63;;;3.30;;
10987;SDS011;5547;42.672;23.230;2024-03-08T01:02:52;4.20;;;2.87;;
10987;SDS011;5547;42.672;23.230;2024-03-08T01:05:53;4.23;;;2.83;;
10987;SDS011;5547;42.672;23.230;2024-03-08T01:08:54;4.97;;;3.07;;
10987;SDS011;5547;42.672;23.230;2024-03-08T01:11:54;4.23;;;2.70;;
10987;SDS011;5547;42.672;23.230;2024-03-08T01:14:55;4.10;;;3.30;;
10987;SDS011;5547;42.672;23.230;2024-03-08T01:17:55;4.03;;;3.30;;
10987;SDS011;5547;42.672;23.230;2024-03-08T01:20:56;3.78;;;3.13;;
10987;SDS011;5547;42.672;23.230;2024-03-08T01:23:56;4.97;;;3.43;;
10987;SDS011;5547;42.672;23.230;2024-03-08T01:26:56;4.17;;;3.13;;
10987;SDS011;5547;42.672;23.230;2024-03-08T01:29:57;4.83;;;3.00;;
10987;SDS011;5547;42.672;23.230;2024-03-08T01:32:59;4.07;;;3.08;;
10987;SDS011;5547;42.672;23.230;2024-03-08T01:35:59;4.70;;;3.50;;
10987;SDS011;5547;42.672;23.230;2024-03-08T01:39:00;4.25;;;3.58;;
10987;SDS011;5547;42.672;23.230;2024-03-08T01:42:00;4.27;;;3.40;;
10987;SDS011;5547;42.672;23.230;2024-03-08T01:45:00;4.23;;;3.30;;
10987;SDS011;5547;42.672;23.230;2024-03-08T01:48:01;4.43;;;3.40;;
10987;SDS011;5547;42.672;23.230;2024-03-08T01:51:01;4.18;;;2.85;;
10987;SDS011;5547;42.672;23.230;2024-03-08T01:54:01;4.47;;;3.40;;
10987;SDS011;5547;42.672;23.230;2024-03-08T01:57:02;5.53;;;3.90;;
10987;SDS011;5547;42.672;23.230;2024-03-08T02:00:03;4.40;;;3.40;;
10987;SDS011;5547;42.672;23.230;2024-03-08T02:03:03;4.10;;;3.37;;
10987;SDS011;5547;42.672;23.230;2024-03-08T02:06:04;5.00;;;3.77;;
10987;SDS011;5547;42.672;23.230;2024-03-08T02:09:05;4.23;;;3.40;;
10987;SDS011;5547;42.672;23.230;2024-03-08T02:12:06;4.35;;;3.50;;
10987;SDS011;5547;42.672;23.230;2024-03-08T02:15:08;4.05;;;3.05;;
10987;SDS011;5547;42.672;23.230;2024-03-08T02:18:08;4.93;;;3.50;;
10987;SDS011;5547;42.672;23.230;2024-03-08T02:21:08;4.40;;;3.93;;
10987;SDS011;5547;42.672;23.230;2024-03-08T02:24:08;4.33;;;3.40;;
10987;SDS011;5547;42.672;23.230;2024-03-08T02:27:09;4.27;;;3.63;;
10987;SDS011;5547;42.672;23.230;2024-03-08T02:30:11;3.97;;;3.22;;
10987;SDS011;5547;42.672;23.230;2024-03-08T02:33:15;4.40;;;3.30;;
10987;SDS011;5547;42.672;23.230;2024-03-08T02:36:18;4.18;;;3.58;;
10987;SDS011;5547;42.672;23.230;2024-03-08T02:39:18;4.43;;;3.67;;
10987;SDS011;5547;42.672;23.230;2024-03-08T02:42:19;4.28;;;3.80;;
10987;SDS011;5547;42.672;23.230;2024-03-08T02:45:20;5.13;;;4.30;;
10987;SDS011;5547;42.672;23.230;2024-03-08T02:48:20;4.50;;;3.78;;
10987;SDS011;5547;42.672;23.230;2024-03-08T02:51:21;5.43;;;4.32;;
10987;SDS011;5547;42.672;23.230;2024-03-08T02:54:22;5.37;;;4.00;;
10987;SDS011;5547;42.672;23.230;2024-03-08T02:57:22;5.03;;;3.63;;
10987;SDS011;5547;42.672;23.230;2024-03-08T03:00:22;5.90;;;4.30;;
10987;SDS011;5547;42.672;23.230;2024-03-08T03:03:23;6.80;;;5.13;;
10987;SDS011;5547;42.672;23.230;2024-03-08T03:06:23;8.93;;;5.13;;
10987;SDS011;5547;42.672;23.230;2024-03-08T03:09:23;7.80;;;5.63;;
10987;SDS011;5547;42.672;23.230;2024-03-08T03:12:27;7.53;;;5.70;;
10987;SDS011;5547;42.672;23.230;2024-03-08T03:15:28;8.30;;;5.88;;
10987;SDS011;5547;42.672;23.230;2024-03-08T03:18:28;7.73;;;5.20;;
10987;SDS011;5547;42.672;23.230;2024-03-08T03:21:29;7.47;;;4.90;;
10987;SDS011;5547;42.672;23.230;2024-03-08T03:24:32;5.85;;;4.57;;
10987;SDS011;5547;42.672;23.230;2024-03-08T03:27:32;5.72;;;4.50;;
10987;SDS011;5547;42.672;23.230;2024-03-08T03:30:33;6.07;;;4.13;;
10987;SDS011;5547;42.672;23.230;2024-03-08T03:33:33;4.20;;;3.23;;
10987;SDS011;5547;42.672;23.230;2024-03-08T03:36:34;4.32;;;3.08;;
10987;SDS011;5547;42.672;23.230;2024-03-08T03:39:38;3.55;;;2.40;;
10987;SDS011;5547;42.672;23.230;2024-03-08T03:42:57;3.28;;;2.38;;
10987;SDS011;5547;42.672;23.230;2024-03-08T03:45:57;3.17;;;2.37;;
10987;SDS011;5547;42.672;23.230;2024-03-08T03:48:58;4.10;;;3.50;;
10987;SDS011;5547;42.672;23.230;2024-03-08T03:51:58;4.00;;;3.33;;
10987;SDS011;5547;42.672;23.230;2024-03-08T03:54:59;3.50;;;2.40;;
10987;SDS011;5547;42.672;23.230;2024-03-08T03:57:59;2.90;;;2.43;;
10987;SDS011;5547;42.672;23.230;2024-03-08T04:01:01;3.72;;;2.35;;
10987;SDS011;5547;42.672;23.230;2024-03-08T04:04:01;3.47;;;2.80;;
10987;SDS011;5547;42.672;23.230;2024-03-08T04:07:01;2.90;;;2.60;;
10987;SDS011;5547;42.672;23.230;2024-03-08T04:10:02;4.22;;;3.38;;
10987;SDS011;5547;42.672;23.230;2024-03-08T04:13:03;4.22;;;3.28;;
10987;SDS011;5547;42.672;23.230;2024-03-08T04:16:04;4.33;;;2.97;;
10987;SDS011;5547;42.672;23.230;2024-03-08T04:19:07;2.40;;;2.00;;
10987;SDS011;5547;42.672;23.230;2024-03-08T04:22:10;2.63;;;1.88;;
10987;SDS011;5547;42.672;23.230;2024-03-08T04:25:10;2.50;;;1.70;;
10987;SDS011;5547;42.672;23.230;2024-03-08T04:28:10;3.00;;;2.00;;
10987;SDS011;5547;42.672;23.230;2024-03-08T04:31:11;2.70;;;1.70;;
10987;SDS011;5547;42.672;23.230;2024-03-08T04:34:12;1.90;;;1.60;;
10987;SDS011;5547;42.672;23.230;2024-03-08T04:37:12;2.33;;;1.60;;
10987;SDS011;5547;42.672;23.230;2024-03-08T04:40:14;2.55;;;2.25;;
10987;SDS011;5547;42.672;23.230;2024-03-08T04:43:14;3.90;;;3.60;;
10987;SDS011;5547;42.672;23.230;2024-03-08T04:46:14;3.03;;;2.63;;
10987;SDS011;5547;42.672;23.230;2024-03-08T04:49:16;2.45;;;2.03;;
10987;SDS011;5547;42.672;23.230;2024-03-08T04:52:19;2.80;;;2.40;;
10987;SDS011;5547;42.672;23.230;2024-03-08T04:55:19;2.70;;;2.37;;
10987;SDS011;5547;42.672;23.230;2024-03-08T04:58:21;2.67;;;2.37;;
10987;SDS011;5547;42.672;23.230;2024-03-08T05:01:21;3.57;;;2.40;;
10987;SDS011;5547;42.672;23.230;2024-03-08T05:04:21;4.87;;;2.80;;
10987;SDS011;5547;42.672;23.230;2024-03-08T05:07:22;3.13;;;2.50;;
10987;SDS011;5547;42.672;23.230;2024-03-08T05:10:22;4.50;;;2.87;;
10987;SDS011;5547;42.672;23.230;2024-03-08T05:13:22;4.90;;;3.42;;
10987;SDS011;5547;42.672;23.230;2024-03-08T05:16:23;3.97;;;3.50;;
10987;SDS011;5547;42.672;23.230;2024-03-08T05:19:23;4.03;;;3.07;;
10987;SDS011;5547;42.672;23.230;2024-03-08T05:22:24;5.40;;;4.27;;
10987;SDS011;5547;42.672;23.230;2024-03-08T05:25:24;4.55;;;3.00;;
10987;SDS011;5547;42.672;23.230;2024-03-08T05:28:24;4.13;;;3.37;;
10987;SDS011;5547;42.672;23.230;2024-03-08T05:31:25;5.57;;;3.93;;
10987;SDS011;5547;42.672;23.230;2024-03-08T05:34:25;5.20;;;3.80;;
10987;SDS011;5547;42.672;23.230;2024-03-08T05:37:28;4.35;;;3.80;;
10987;SDS011;5547;42.672;23.230;2024-03-08T05:40:28;5.83;;;4.70;;
10987;SDS011;5547;42.672;23.230;2024-03-08T05:43:32;7.13;;;4.60;;
10987;SDS011;5547;42.672;23.230;2024-03-08T05:46:33;7.15;;;4.90;;
10987;SDS011;5547;42.672;23.230;2024-03-08T05:49:34;6.95;;;5.18;;
10987;SDS011;5547;42.672;23.230;2024-03-08T05:52:34;8.43;;;5.50;;
10987;SDS011;5547;42.672;23.230;2024-03-08T05:55:34;8.17;;;6.17;;
10987;SDS011;5547;42.672;23.230;2024-03-08T05:58:35;7.97;;;5.67;;
10987;SDS011;5547;42.672;23.230;2024-03-08T06:01:38;8.48;;;5.72;;
10987;SDS011;5547;42.672;23.230;2024-03-08T06:04:40;9.88;;;6.82;;
10987;SDS011;5547;42.672;23.230;2024-03-08T06:07:42;10.10;;;7.27;;
10987;SDS011;5547;42.672;23.230;2024-03-08T06:10:43;10.83;;;7.83;;
10987;SDS011;5547;42.672;23.230;2024-03-08T06:13:43;9.40;;;6.80;;
10987;SDS011;5547;42.672;23.230;2024-03-08T06:16:44;9.27;;;6.73;;
10987;SDS011;5547;42.672;23.230;2024-03-08T06:19:44;8.63;;;6.30;;
10987;SDS011;5547;42.672;23.230;2024-03-08T06:22:46;8.13;;;5.95;;
10987;SDS011;5547;42.672;23.230;2024-03-08T06:25:46;8.27;;;5.97;;
10987;SDS011;5547;42.672;23.230;2024-03-08T06:28:47;8.60;;;6.10;;
10987;SDS011;5547;42.672;23.230;2024-03-08T06:31:48;9.23;;;6.70;;
10987;SDS011;5547;42.672;23.230;2024-03-08T06:34:48;9.10;;;5.97;;
10987;SDS011;5547;42.672;23.230;2024-03-08T06:37:50;7.45;;;5.40;;
10987;SDS011;5547;42.672;23.230;2024-03-08T06:40:50;8.37;;;5.93;;
10987;SDS011;5547;42.672;23.230;2024-03-08T06:43:51;7.73;;;5.60;;
10987;SDS011;5547;42.672;23.230;2024-03-08T06:46:51;8.32;;;5.70;;
10987;SDS011;5547;42.672;23.230;2024-03-08T06:49:52;8.50;;;6.37;;
10987;SDS011;5547;42.672;23.230;2024-03-08T06:52:52;7.80;;;6.00;;
10987;SDS011;5547;42.672;23.230;2024-03-08T06:55:53;8.50;;;6.20;;
10987;SDS011;5547;42.672;23.230;2024-03-08T06:58:54;12.10;;;9.30;;
10987;SDS011;5547;42.672;23.230;2024-03-08T07:01:55;12.73;;;9.63;;
10987;SDS011;5547;42.672;23.230;2024-03-08T07:04:55;10.63;;;8.50;;
10987;SDS011;5547;42.672;23.230;2024-03-08T07:07:56;11.77;;;9.07;;
10987;SDS011;5547;42.672;23.230;2024-03-08T07:10:56;10.63;;;7.63;;
10987;SDS011;5547;42.672;23.230;2024-03-08T07:13:58;10.83;;;7.03;;
10987;SDS011;5547;42.672;23.230;2024-03-08T07:16:58;9.33;;;6.63;;
10987;SDS011;5547;42.672;23.230;2024-03-08T07:19:59;10.07;;;6.73;;
10987;SDS011;5547;42.672;23.230;2024-03-08T07:22:59;9.53;;;8.53;;
10987;SDS011;5547;42.672;23.230;2024-03-08T07:25:59;10.30;;;6.70;;
10987;SDS011;5547;42.672;23.230;2024-03-08T07:29:01;9.18;;;6.65;;
10987;SDS011;5547;42.672;23.230;2024-03-08T07:32:01;9.07;;;6.80;;
10987;SDS011;5547;42.672;23.230;2024-03-08T07:35:33;8.48;;;6.30;;
10987;SDS011;5547;42.672;23.230;2024-03-08T07:38:40;8.77;;;5.80;;
10987;SDS011;5547;42.672;23.230;2024-03-08T07:41:41;7.75;;;5.75;;
10987;SDS011;5547;42.672;23.230;2024-03-08T07:44:41;8.17;;;6.47;;
10987;SDS011;5547;42.672;23.230;2024-03-08T07:47:41;8.27;;;6.47;;
10987;SDS011;5547;42.672;23.230;2024-03-08T07:50:42;11.17;;;7.80;;
10987;SDS011;5547;42.672;23.230;2024-03-08T07:53:42;11.15;;;7.85;;
10987;SDS011;5547;42.672;23.230;2024-03-08T07:56:52;12.13;;;8.77;;
10987;SDS011;5547;42.672;23.230;2024-03-08T07:59:53;15.82;;;10.40;;
10987;SDS011;5547;42.672;23.230;2024-03-08T08:02:54;12.13;;;9.00;;
10987;SDS011;5547;42.672;23.230;2024-03-08T08:05:55;11.97;;;9.30;;
10987;SDS011;5547;42.672;23.230;2024-03-08T08:08:55;10.97;;;8.90;;
10987;SDS011;5547;42.672;23.230;2024-03-08T08:11:57;13.30;;;9.70;;
10987;SDS011;5547;42.672;23.230;2024-03-08T08:15:01;14.00;;;11.10;;
10987;SDS011;5547;42.672;23.230;2024-03-08T08:18:04;14.25;;;11.27;;
10987;SDS011;5547;42.672;23.230;2024-03-08T08:21:05;13.60;;;10.55;;
10987;SDS011;5547;42.672;23.230;2024-03-08T08:24:08;11.95;;;9.30;;
10987;SDS011;5547;42.672;23.230;2024-03-08T08:27:09;12.17;;;8.47;;
10987;SDS011;5547;42.672;23.230;2024-03-08T08:30:12;8.65;;;6.82;;
10987;SDS011;5547;42.672;23.230;2024-03-08T08:33:14;10.00;;;7.33;;
10987;SDS011;5547;42.672;23.230;2024-03-08T08:36:14;8.45;;;7.03;;
10987;SDS011;5547;42.672;23.230;2024-03-08T08:39:15;10.02;;;7.57;;
10987;SDS011;5547;42.672;23.230;2024-03-08T08:42:20;9.60;;;7.45;;
10987;SDS011;5547;42.672;23.230;2024-03-08T08:45:20;10.07;;;7.77;;
10987;SDS011;5547;42.672;23.230;2024-03-08T08:48:22;10.00;;;7.33;;
10987;SDS011;5547;42.672;23.230;2024-03-08T08:51:22;9.52;;;7.03;;
10987;SDS011;5547;42.672;23.230;2024-03-08T08:54:23;12.03;;;9.17;;
10987;SDS011;5547;42.672;23.230;2024-03-08T08:57:25;10.75;;;8.52;;
10987;SDS011;5547;42.672;23.230;2024-03-08T09:00:26;9.68;;;7.75;;
10987;SDS011;5547;42.672;23.230;2024-03-08T09:03:30;10.65;;;8.27;;
10987;SDS011;5547;42.672;23.230;2024-03-08T09:06:36;8.33;;;6.83;;
10987;SDS011;5547;42.672;23.230;2024-03-08T09:09:36;8.35;;;6.97;;
10987;SDS011;5547;42.672;23.230;2024-03-08T09:12:40;10.27;;;6.87;;
10987;SDS011;5547;42.672;23.230;2024-03-08T09:15:40;7.90;;;6.45;;
10987;SDS011;5547;42.672;23.230;2024-03-08T09:18:41;11.30;;;8.33;;
10987;SDS011;5547;42.672;23.230;2024-03-08T09:21:45;9.07;;;7.47;;
10987;SDS011;5547;42.672;23.230;2024-03-08T09:24:46;9.27;;;7.57;;
10987;SDS011;5547;42.672;23.230;2024-03-08T09:27:47;6.43;;;5.05;;
10987;SDS011;5547;42.672;23.230;2024-03-08T09:30:48;7.35;;;4.82;;
10987;SDS011;5547;42.672;23.230;2024-03-08T09:33:49;5.77;;;3.77;;
10987;SDS011;5547;42.672;23.230;2024-03-08T09:36:50;5.57;;;3.88;;
10987;SDS011;5547;42.672;23.230;2024-03-08T09:39:52;6.07;;;4.20;;
10987;SDS011;5547;42.672;23.230;2024-03-08T09:42:52;5.93;;;4.53;;
10987;SDS011;5547;42.672;23.230;2024-03-08T09:45:52;4.65;;;3.95;;
10987;SDS011;5547;42.672;23.230;2024-03-08T09:48:53;4.13;;;3.43;;
10987;SDS011;5547;42.672;23.230;2024-03-08T09:51:54;6.63;;;4.25;;
10987;SDS011;5547;42.672;23.230;2024-03-08T09:54:55;10.00;;;3.72;;
10987;SDS011;5547;42.672;23.230;2024-03-08T09:57:56;3.77;;;2.97;;
10987;SDS011;5547;42.672;23.230;2024-03-08T10:01:17;5.15;;;3.20;;
10987;SDS011;5547;42.672;23.230;2024-03-08T10:04:18;4.20;;;3.03;;
10987;SDS011;5547;42.672;23.230;2024-03-08T10:07:19;4.30;;;3.00;;
10987;SDS011;5547;42.672;23.230;2024-03-08T10:10:20;3.72;;;3.13;;
10987;SDS011;5547;42.672;23.230;2024-03-08T10:13:21;4.25;;;3.17;;
10987;SDS011;5547;42.672;23.230;2024-03-08T10:16:22;5.07;;;3.70;;
10987;SDS011;5547;42.672;23.230;2024-03-08T10:19:24;4.90;;;3.72;;
10987;SDS011;5547;42.672;23.230;2024-03-08T10:22:25;4.50;;;4.10;;
10987;SDS011;5547;42.672;23.230;2024-03-08T10:25:25;5.10;;;4.38;;
10987;SDS011;5547;42.672;23.230;2024-03-08T10:28:26;5.33;;;4.33;;
10987;SDS011;5547;42.672;23.230;2024-03-08T10:31:28;4.05;;;3.28;;
10987;SDS011;5547;42.672;23.230;2024-03-08T10:34:29;4.90;;;3.17;;
10987;SDS011;5547;42.672;23.230;2024-03-08T10:37:29;3.97;;;3.40;;
10987;SDS011;5547;42.672;23.230;2024-03-08T10:40:33;5.03;;;3.33;;
10987;SDS011;5547;42.672;23.230;2024-03-08T10:43:36;6.53;;;3.67;;
10987;SDS011;5547;42.672;23.230;2024-03-08T10:49:50;4.10;;;3.50;;
10987;SDS011;5547;42.672;23.230;2024-03-08T10:52:51;4.60;;;3.80;;
10987;SDS011;5547;42.672;23.230;2024-03-08T10:55:52;4.22;;;2.95;;
10987;SDS011;5547;42.672;23.230;2024-03-08T10:58:53;15.20;;;4.20;;
10987;SDS011;5547;42.672;23.230;2024-03-08T11:01:54;4.22;;;3.10;;
10987;SDS011;5547;42.672;23.230;2024-03-08T11:04:54;3.77;;;3.20;;
10987;SDS011;5547;42.672;23.230;2024-03-08T11:07:56;4.37;;;2.93;;
10987;SDS011;5547;42.672;23.230;2024-03-08T11:10:57;3.50;;;2.90;;
10987;SDS011;5547;42.672;23.230;2024-03-08T11:13:58;3.67;;;2.57;;
10987;SDS011;5547;42.672;23.230;2024-03-08T11:16:58;4.03;;;2.50;;
10987;SDS011;5547;42.672;23.230;2024-03-08T11:20:00;3.20;;;2.63;;
10987;SDS011;5547;42.672;23.230;2024-03-08T11:23:04;3.28;;;2.60;;
10987;SDS011;5547;42.672;23.230;2024-03-08T11:26:26;3.00;;;2.03;;
10987;SDS011;5547;42.672;23.230;2024-03-08T11:32:32;3.35;;;2.42;;
10987;SDS011;5547;42.672;23.230;2024-03-08T11:35:32;4.10;;;2.60;;
10987;SDS011;5547;42.672;23.230;2024-03-08T11:38:33;3.70;;;3.00;;
10987;SDS011;5547;42.672;23.230;2024-03-08T11:41:33;4.00;;;3.00;;
10987;SDS011;5547;42.672;23.230;2024-03-08T11:44:34;3.93;;;3.10;;
10987;SDS011;5547;42.672;23.230;2024-03-08T11:47:34;4.20;;;3.10;;
10987;SDS011;5547;42.672;23.230;2024-03-08T11:50:35;3.40;;;2.72;;
10987;SDS011;5547;42.672;23.230;2024-03-08T11:53:36;3.35;;;2.47;;
10987;SDS011;5547;42.672;23.230;2024-03-08T11:56:39;3.58;;;2.65;;
10987;SDS011;5547;42.672;23.230;2024-03-08T11:59:49;3.60;;;2.60;;
10987;SDS011;5547;42.672;23.230;2024-03-08T12:03:02;3.50;;;2.80;;
10987;SDS011;5547;42.672;23.230;2024-03-08T12:06:03;4.05;;;2.67;;
10987;SDS011;5547;42.672;23.230;2024-03-08T12:09:03;3.67;;;2.77;;
10987;SDS011;5547;42.672;23.230;2024-03-08T12:12:04;3.67;;;2.60;;
10987;SDS011;5547;42.672;23.230;2024-03-08T12:15:07;3.70;;;2.70;;
10987;SDS011;5547;42.672;23.230;2024-03-08T12:18:07;3.75;;;2.72;;
10987;SDS011;5547;42.672;23.230;2024-03-08T12:21:11;3.47;;;2.50;;
10987;SDS011;5547;42.672;23.230;2024-03-08T12:24:14;3.30;;;2.42;;
10987;SDS011;5547;42.672;23.230;2024-03-08T12:27:19;2.97;;;2.55;;
10987;SDS011;5547;42.672;23.230;2024-03-08T12:30:27;3.25;;;2.60;;
10987;SDS011;5547;42.672;23.230;2024-03-08T12:33:30;2.67;;;2.20;;
10987;SDS011;5547;42.672;23.230;2024-03-08T12:36:33;2.72;;;2.20;;
10987;SDS011;5547;42.672;23.230;2024-03-08T12:39:33;3.33;;;2.40;;
10987;SDS011;5547;42.672;23.230;2024-03-08T12:42:37;3.22;;;2.35;;
10987;SDS011;5547;42.672;23.230;2024-03-08T12:45:38;6.97;;;3.15;;
10987;SDS011;5547;42.672;23.230;2024-03-08T12:48:39;3.27;;;2.30;;
10987;SDS011;5547;42.672;23.230;2024-03-08T12:51:40;3.60;;;2.47;;
10987;SDS011;5547;42.672;23.230;2024-03-08T12:54:41;2.30;;;2.10;;
10987;SDS011;5547;42.672;23.230;2024-03-08T12:57:42;5.57;;;2.50;;
10987;SDS011;5547;42.672;23.230;2024-03-08T13:00:43;3.22;;;2.58;;
10987;SDS011;5547;42.672;23.230;2024-03-08T13:03:44;5.27;;;2.67;;
10987;SDS011;5547;42.672;23.230;2024-03-08T13:06:45;3.30;;;2.40;;
10987;SDS011;5547;42.672;23.230;2024-03-08T13:09:49;4.35;;;3.38;;
10987;SDS011;5547;42.672;23.230;2024-03-08T13:12:50;4.27;;;2.90;;
10987;SDS011;5547;42.672;23.230;2024-03-08T13:15:52;3.35;;;2.63;;
10987;SDS011;5547;42.672;23.230;2024-03-08T13:18:53;3.03;;;2.45;;
10987;SDS011;5547;42.672;23.230;2024-03-08T13:21:58;3.47;;;2.80;;
10987;SDS011;5547;42.672;23.230;2024-03-08T13:25:06;3.10;;;2.80;;
10987;SDS011;5547;42.672;23.230;2024-03-08T13:28:14;4.70;;;2.97;;
10987;SDS011;5547;42.672;23.230;2024-03-08T13:31:16;3.55;;;2.42;;
10987;SDS011;5547;42.672;23.230;2024-03-08T13:34:18;3.35;;;2.80;;
10987;SDS011;5547;42.672;23.230;2024-03-08T13:37:18;2.90;;;2.60;;
10987;SDS011;5547;42.672;23.230;2024-03-08T13:40:19;3.95;;;2.90;;
10987;SDS011;5547;42.672;23.230;2024-03-08T13:43:20;2.80;;;2.43;;
10987;SDS011;5547;42.672;23.230;2024-03-08T13:46:29;3.63;;;2.80;;
10987;SDS011;5547;42.672;23.230;2024-03-08T13:49:30;3.88;;;2.60;;
10987;SDS011;5547;42.672;23.230;2024-03-08T13:52:30;3.37;;;2.63;;
10987;SDS011;5547;42.672;23.230;2024-03-08T13:55:32;3.90;;;2.47;;
10987;SDS011;5547;42.672;23.230;2024-03-08T13:58:33;3.63;;;2.65;;
10987;SDS011;5547;42.672;23.230;2024-03-08T14:01:36;4.75;;;2.75;;
10987;SDS011;5547;42.672;23.230;2024-03-08T14:04:37;7.35;;;3.30;;
10987;SDS011;5547;42.672;23.230;2024-03-08T14:07:39;5.23;;;2.90;;
10987;SDS011;5547;42.672;23.230;2024-03-08T14:10:40;3.72;;;2.50;;
10987;SDS011;5547;42.672;23.230;2024-03-08T14:13:42;3.25;;;2.33;;
10987;SDS011;5547;42.672;23.230;2024-03-08T14:16:47;6.80;;;2.90;;
10987;SDS011;5547;42.672;23.230;2024-03-08T14:19:51;6.80;;;2.50;;
10987;SDS011;5547;42.672;23.230;2024-03-08T14:22:55;7.82;;;2.50;;
10987;SDS011;5547;42.672;23.230;2024-03-08T14:25:56;3.30;;;2.40;;
10987;SDS011;5547;42.672;23.230;2024-03-08T14:28:56;3.40;;;2.43;;
10987;SDS011;5547;42.672;23.230;2024-03-08T14:31:57;5.18;;;2.67;;
10987;SDS011;5547;42.672;23.230;2024-03-08T14:34:58;3.15;;;2.25;;
10987;SDS011;5547;42.672;23.230;2024-03-08T14:37:59;4.30;;;2.40;;
10987;SDS011;5547;42.672;23.230;2024-03-08T14:41:00;3.25;;;2.45;;
10987;SDS011;5547;42.672;23.230;2024-03-08T14:44:01;4.78;;;2.88;;
10987;SDS011;5547;42.672;23.230;2024-03-08T14:47:01;6.07;;;2.93;;
10987;SDS011;5547;42.672;23.230;2024-03-08T14:50:05;3.72;;;2.95;;
10987;SDS011;5547;42.672;23.230;2024-03-08T14:53:08;4.93;;;3.72;;
10987;SDS011;5547;42.672;23.230;2024-03-08T14:56:09;6.38;;;3.80;;
10987;SDS011;5547;42.672;23.230;2024-03-08T14:59:09;4.97;;;3.63;;
10987;SDS011;5547;42.672;23.230;2024-03-08T15:02:11;7.43;;;4.77;;
10987;SDS011;5547;42.672;23.230;2024-03-08T15:05:14;5.63;;;4.20;;
10987;SDS011;5547;42.672;23.230;2024-03-08T15:08:21;6.07;;;4.80;;
10987;SDS011;5547;42.672;23.230;2024-03-08T15:11:24;5.13;;;3.92;;
10987;SDS011;5547;42.672;23.230;2024-03-08T15:14:25;5.53;;;3.97;;
10987;SDS011;5547;42.672;23.230;2024-03-08T15:17:26;6.28;;;4.00;;
10987;SDS011;5547;42.672;23.230;2024-03-08T15:20:29;7.00;;;4.37;;
10987;SDS011;5547;42.672;23.230;2024-03-08T15:23:35;7.40;;;4.50;;
10987;SDS011;5547;42.672;23.230;2024-03-08T15:26:37;6.07;;;4.37;;
10987;SDS011;5547;42.672;23.230;2024-03-08T15:29:38;5.05;;;2.67;;
10987;SDS011;5547;42.672;23.230;2024-03-08T15:32:39;3.77;;;2.70;;
10987;SDS011;5547;42.672;23.230;2024-03-08T15:35:41;4.90;;;3.55;;
10987;SDS011;5547;42.672;23.230;2024-03-08T15:38:42;5.95;;;4.07;;
10987;SDS011;5547;42.672;23.230;2024-03-08T15:41:49;7.43;;;4.72;;
10987;SDS011;5547;42.672;23.230;2024-03-08T15:44:49;5.47;;;3.97;;
10987;SDS011;5547;42.672;23.230;2024-03-08T15:47:50;6.27;;;4.57;;
10987;SDS011;5547;42.672;23.230;2024-03-08T15:50:50;5.47;;;4.17;;
10987;SDS011;5547;42.672;23.230;2024-03-08T15:53:52;6.43;;;4.50;;
10987;SDS011;5547;42.672;23.230;2024-03-08T15:56:57;4.53;;;3.92;;
10987;SDS011;5547;42.672;23.230;2024-03-08T15:59:58;6.72;;;5.30;;
10987;SDS011;5547;42.672;23.230;2024-03-08T16:03:00;6.00;;;4.80;;
10987;SDS011;5547;42.672;23.230;2024-03-08T16:06:02;8.43;;;6.43;;
10987;SDS011;5547;42.672;23.230;2024-03-08T16:09:06;9.60;;;7.57;;
10987;SDS011;5547;42.672;23.230;2024-03-08T16:12:13;12.05;;;9.00;;
10987;SDS011;5547;42.672;23.230;2024-03-08T16:15:15;13.63;;;10.55;;
10987;SDS011;5547;42.672;23.230;2024-03-08T16:18:16;12.97;;;10.27;;
10987;SDS011;5547;42.672;23.230;2024-03-08T16:21:16;12.85;;;10.25;;
10987;SDS011;5547;42.672;23.230;2024-03-08T16:24:17;14.70;;;10.33;;
10987;SDS011;5547;42.672;23.230;2024-03-08T16:27:19;9.60;;;8.35;;
10987;SDS011;5547;42.672;23.230;2024-03-08T16:30:20;7.50;;;6.00;;
10987;SDS011;5547;42.672;23.230;2024-03-08T16:33:22;10.07;;;8.68;;
10987;SDS011;5547;42.672;23.230;2024-03-08T16:36:22;13.40;;;10.60;;
10987;SDS011;5547;42.672;23.230;2024-03-08T16:39:23;11.40;;;8.53;;
10987;SDS011;5547;42.672;23.230;2024-03-08T16:42:24;9.82;;;7.72;;
10987;SDS011;5547;42.672;23.230;2024-03-08T16:45:24;13.90;;;10.00;;
10987;SDS011;5547;42.672;23.230;2024-03-08T16:48:26;14.55;;;11.05;;
10987;SDS011;5547;42.672;23.230;2024-03-08T16:51:26;13.03;;;10.77;;
10987;SDS011;5547;42.672;23.230;2024-03-08T16:54:27;13.17;;;8.77;;
10987;SDS011;5547;42.672;23.230;2024-03-08T16:57:28;11.27;;;8.27;;
10987;SDS011;5547;42.672;23.230;2024-03-08T17:00:31;12.10;;;8.60;;
10987;SDS011;5547;42.672;23.230;2024-03-08T17:03:32;10.52;;;8.73;;
10987;SDS011;5547;42.672;23.230;2024-03-08T17:06:32;16.83;;;13.93;;
10987;SDS011;5547;42.672;23.230;2024-03-08T17:09:33;9.73;;;7.17;;
10987;SDS011;5547;42.672;23.230;2024-03-08T17:12:34;9.88;;;7.57;;
10987;SDS011;5547;42.672;23.230;2024-03-08T17:15:34;9.20;;;6.93;;
10987;SDS011;5547;42.672;23.230;2024-03-08T17:18:35;10.68;;;6.93;;
10987;SDS011;5547;42.672;23.230;2024-03-08T17:21:36;8.40;;;6.60;;
10987;SDS011;5547;42.672;23.230;2024-03-08T17:24:36;11.70;;;6.63;;
10987;SDS011;5547;42.672;23.230;2024-03-08T17:27:38;14.27;;;9.80;;
10987;SDS011;5547;42.672;23.230;2024-03-08T17:30:39;13.27;;;9.73;;
10987;SDS011;5547;42.672;23.230;2024-03-08T17:33:40;11.30;;;8.88;;
10987;SDS011;5547;42.672;23.230;2024-03-08T17:36:42;9.77;;;7.32;;
10987;SDS011;5547;42.672;23.230;2024-03-08T17:39:42;9.73;;;7.80;;
10987;SDS011;5547;42.672;23.230;2024-03-08T17:42:42;12.63;;;8.95;;
10987;SDS011;5547;42.672;23.230;2024-03-08T17:45:42;22.47;;;15.00;;
10987;SDS011;5547;42.672;23.230;2024-03-08T17:48:45;34.80;;;20.85;;
10987;SDS011;5547;42.672;23.230;2024-03-08T17:51:45;23.33;;;14.37;;
10987;SDS011;5547;42.672;23.230;2024-03-08T17:54:46;19.80;;;12.47;;
10987;SDS011;5547;42.672;23.230;2024-03-08T17:57:46;17.77;;;12.27;;
10987;SDS011;5547;42.672;23.230;2024-03-08T18:00:48;11.85;;;9.07;;
10987;SDS011;5547;42.672;23.230;2024-03-08T18:03:51;13.63;;;9.55;;
10987;SDS011;5547;42.672;23.230;2024-03-08T18:06:52;13.23;;;9.05;;
10987;SDS011;5547;42.672;23.230;2024-03-08T18:09:53;15.10;;;10.07;;
10987;SDS011;5547;42.672;23.230;2024-03-08T18:12:55;36.50;;;24.85;;
10987;SDS011;5547;42.672;23.230;2024-03-08T18:15:58;23.98;;;17.05;;
10987;SDS011;5547;42.672;23.230;2024-03-08T18:18:58;11.17;;;8.80;;